Flight Track Log - Related Links

Times and Time Zones

All times are in EDT time to prevent confusion due to time zone crossing. See the ATN510 flight status page for this flight to view local times or setup timezone preferences in your user account.

Time Position Orientation Groundspeed Altitude Reporting Facility
EDT Latitude Longitude Course Direction KTS MPH feet Rate Location/Type
Thu 03:28:11 AM 39.1667 -76.6167 120° Southeast 178 205 1,300  Level Potomac TRACON
Thu 03:30:30 AM 39.1019 -76.4717 120° Southeast 214 246 5,000 1,736 Climbing Washington Center
Thu 03:31:28 AM 39.0461 -76.4042 137° Southeast 248 285 7,000 2,237 Climbing Washington Center
Thu 03:32:28 AM 39.0239 -76.3078 107° East 261 300 9,400 1,950 Climbing Washington Center
Thu 03:33:28 AM 39.0328 -76.1981 84° East 266 306 10,900 1,450 Climbing Washington Center
Thu 03:34:28 AM 39.0519 -76.0728 79° East 307 353 12,300 1,450 Climbing Washington Center
Thu 03:35:28 AM 39.1192 -75.9769 48° Northeast 323 372 13,800 1,450 Climbing Washington Center
Thu 03:36:28 AM 39.1922 -75.8728 48° Northeast 358 412 15,200 1,537 Climbing Washington Center
Thu 03:37:29 AM 39.2778 -75.7792 40° Northeast 374 430 16,900 1,707 Climbing Washington Center
Thu 03:38:31 AM 39.3883 -75.7367 17° North 387 445 18,700 1,765 Climbing Washington Center
Thu 03:39:28 AM 39.4969 -75.7019 14° North 392 451 20,400 1,475 Climbing Washington Center
Thu 03:40:29 AM 39.6053 -75.6642 15° North 397 457 21,600 1,094 Climbing Washington Center
Thu 03:42:40 AM 39.7800 -75.4711 40° Northeast 405 466 23,900 1,094 Climbing New York Center
Thu 03:43:41 AM 39.8736 -75.3178 51° Northeast 405 466 25,100 1,082 Climbing New York Center
Thu 03:44:42 AM 39.9753 -75.2269 34° Northeast 411 473 26,100 893 Climbing New York Center
Thu 03:45:42 AM 40.0786 -75.1331 35° Northeast 427 491 26,900 694 Climbing New York Center
Thu 03:46:43 AM 40.1803 -75.0361 36° Northeast 440 506 27,500 655 Climbing New York Center
Thu 03:47:41 AM 40.2878 -74.9422 34° Northeast 453 521 28,200 718 Climbing New York Center
Thu 03:48:40 AM 40.3956 -74.8397 36° Northeast 464 534 28,900 700 Climbing New York Center
Thu 03:49:41 AM 40.5053 -74.7397 35° Northeast 469 540 29,600 650 Climbing New York Center
Thu 03:50:40 AM 40.6172 -74.6314 36° Northeast 482 555 30,200 645 Climbing New York Center
Thu 03:51:42 AM 40.7311 -74.5283 34° Northeast 493 567 30,900 697 Climbing New York Center
Thu 03:53:15 AM 40.8958 -74.3758 35° Northeast 492 566 32,000 824 Climbing Boston Center
Thu 03:54:15 AM 41.0081 -74.2719 35° Northeast 492 566 33,000 500 Climbing Boston Center
Thu 03:55:15 AM 41.1286 -74.1542 36° Northeast 492 566 33,000  Level Boston Center
Thu 03:56:39 AM 41.2617 -74.0306 35° Northeast 487 560 33,000  Level Boston Center
Thu 03:57:39 AM 41.3928 -73.9011 37° Northeast 487 560 33,000  Level Boston Center
Thu 03:58:39 AM 41.5044 -73.7956 35° Northeast 487 560 33,000  Level Boston Center
Thu 04:00:03 AM 41.6372 -73.6678 36° Northeast 482 555 33,000  Level Boston Center
Thu 04:01:03 AM 41.7678 -73.5394 36° Northeast 482 555 33,000  Level Boston Center
Thu 04:02:03 AM 41.8814 -73.4300 36° Northeast 487 560 33,000  Level Boston Center
Thu 04:03:03 AM 41.9928 -73.3200 36° Northeast 487 560 33,000  Level Boston Center
Thu 04:04:03 AM 42.1019 -73.2125 36° Northeast 487 560 33,000  Level Boston Center
Thu 04:05:03 AM 42.2150 -73.1017 36° Northeast 487 560 33,000  Level Boston Center
Thu 04:06:03 AM 42.3242 -72.9906 37° Northeast 487 560 33,000  Level Boston Center
Thu 04:07:03 AM 42.4369 -72.8761 37° Northeast 493 567 33,000  Level Boston Center
Thu 04:08:03 AM 42.5458 -72.7614 38° Northeast 487 560 33,000  Level Boston Center
Thu 04:09:03 AM 42.6544 -72.6517 37° Northeast 487 560 33,000  Level Boston Center
Thu 04:10:03 AM 42.7589 -72.5617 32° Northeast 487 560 33,000  Level Boston Center
Thu 04:11:03 AM 42.8672 -72.4514 37° Northeast 487 560 33,000  Level Boston Center
Thu 04:12:03 AM 42.9756 -72.3381 37° Northeast 487 560 33,000  Level Boston Center
Thu 04:13:03 AM 43.0775 -72.2269 39° Northeast 480 552 33,000  Level Boston Center
Thu 04:14:03 AM 43.1856 -72.1156 37° Northeast 480 552 33,000  Level Boston Center
Thu 04:15:03 AM 43.2936 -72.0036 37° Northeast 480 552 33,000  Level Boston Center
Thu 04:16:03 AM 43.3994 -71.8942 37° Northeast 481 554 33,000  Level Boston Center
Thu 04:17:03 AM 43.5072 -71.7789 38° Northeast 481 554 33,000  Level Boston Center
Thu 04:18:03 AM 43.6147 -71.6658 37° Northeast 486 559 33,000  Level Boston Center
Thu 04:19:03 AM 43.7244 -71.5553 36° Northeast 486 559 33,000  Level Boston Center
Thu 04:20:03 AM 43.8381 -71.4297 39° Northeast 481 554 33,000  Level Boston Center
Thu 04:21:03 AM 43.9308 -71.3303 38° Northeast 481 554 33,000  Level Boston Center
Thu 04:22:03 AM 44.0381 -71.2186 37° Northeast 481 554 33,000  Level Boston Center
Thu 04:23:03 AM 44.1453 -71.1036 38° Northeast 481 554 33,000  Level Boston Center
Thu 04:24:03 AM 44.2542 -70.9881 37° Northeast 481 554 33,000  Level Boston Center
Thu 04:25:03 AM 44.3825 -70.9122 23° Northeast 481 554 33,000  Level Boston Center
Thu 04:26:03 AM 44.5086 -70.8419 22° Northeast 486 559 33,000  Level Boston Center
Thu 04:27:03 AM 44.6367 -70.7686 22° Northeast 491 565 33,000  Level Boston Center
Thu 04:28:03 AM 44.7669 -70.6975 21° North 491 565 33,000  Level Boston Center
Thu 04:29:03 AM 44.8950 -70.6175 24° Northeast 491 565 33,000  Level Boston Center
Thu 04:30:03 AM 45.0228 -70.5458 22° Northeast 491 565 33,000  Level Boston Center
Thu 04:31:03 AM 45.1508 -70.4711 22° Northeast 491 565 33,000  Level Boston Center
Thu 04:32:03 AM 45.2911 -70.3897 22° Northeast 491 565 33,000  Level Boston Center
Thu 04:33:03 AM 45.4189 -70.3142 23° Northeast 491 565 33,000  Level Boston Center
Thu 04:34:03 AM 45.5506 -70.2353 23° Northeast 491 565 33,000  Level Boston Center
Thu 04:35:03 AM 45.6761 -70.1592 23° Northeast 491 565 33,000  Level Boston Center
Thu 04:36:03 AM 45.8058 -70.0825 22° Northeast 496 571 33,000  Level Boston Center
Thu 04:37:03 AM 45.9356 -70.0056 22° Northeast 496 571 33,000  Level Boston Center
Thu 04:38:03 AM 46.0631 -69.9253 24° Northeast 496 571 33,000  Level Boston Center
Thu 04:39:03 AM 46.1883 -69.8447 24° Northeast 490 564 33,000  Level Boston Center
Thu 04:40:03 AM 46.3197 -69.7667 22° Northeast 496 571 33,000  Level Boston Center
Thu 04:41:03 AM 46.4489 -69.6850 24° Northeast 496 571 33,000  Level Boston Center
Thu 04:42:03 AM 46.5783 -69.6061 23° Northeast 496 571 33,000  Level Boston Center
Thu 04:43:03 AM 46.7053 -69.5242 24° Northeast 496 571 33,000  Level Boston Center
Thu 04:44:03 AM 46.8222 -69.4544 22° Northeast 496 571 33,000  Level Boston Center
Thu 04:45:03 AM 46.9492 -69.3744 23° Northeast 496 571 33,000  Level Boston Center
Thu 04:46:03 AM 47.0761 -69.2944 23° Northeast 496 571 33,000  Level Boston Center
Thu 04:47:03 AM 47.2050 -69.2106 24° Northeast 496 571 33,000  Level Boston Center
Thu 04:48:06 AM 47.3333 -69.0667 37° Northeast 490 564 33,000  Level Montreal Center
Thu 04:49:06 AM 47.4667 -69.0000 19° North 500 575 33,000  Level Montreal Center
Thu 04:50:06 AM 47.6000 -68.9167 23° Northeast 500 575 33,000  Level Montreal Center
Thu 04:51:06 AM 47.7333 -68.8500 19° North 500 575 33,000  Level Montreal Center
Thu 04:52:06 AM 47.8333 -68.7500 34° Northeast 500 575 33,000  Level Montreal Center
Thu 04:53:06 AM 47.9667 -68.6667 23° Northeast 500 575 33,000  Level Montreal Center
Thu 04:54:06 AM 48.1000 -68.5833 23° Northeast 500 575 33,000  Level Montreal Center
Thu 04:55:06 AM 48.2333 -68.5000 23° Northeast 500 575 33,000  Level Montreal Center
Thu 04:56:06 AM 48.3500 -68.4167 25° Northeast 500 575 33,000  Level Montreal Center
Thu 04:57:06 AM 48.4833 -68.3333 22° Northeast 500 575 33,000  Level Montreal Center
Thu 04:58:06 AM 48.6167 -68.2333 26° Northeast 500 575 33,000  Level Montreal Center
Thu 04:59:06 AM 48.7167 -68.1667 24° Northeast 500 575 33,000  Level Montreal Center
Thu 05:00:06 AM 48.8667 -68.0667 24° Northeast 500 575 33,000  Level Montreal Center
Thu 05:01:06 AM 48.9833 -67.9833 25° Northeast 500 575 33,000  Level Montreal Center
Thu 05:02:06 AM 49.1333 -67.8833 24° Northeast 500 575 33,000  Level Montreal Center
Thu 05:03:06 AM 49.2333 -67.8000 29° Northeast 500 575 33,000  Level Montreal Center
Thu 05:04:06 AM 49.3667 -67.7167 22° Northeast 500 575 33,000  Level Montreal Center
Thu 05:05:06 AM 49.5000 -67.6167 26° Northeast 500 575 33,000  Level Montreal Center
Thu 05:06:06 AM 49.6167 -67.5500 20° North 500 575 33,000  Level Montreal Center
Thu 05:07:06 AM 49.7500 -67.4333 29° Northeast 500 575 33,000  Level Montreal Center
Thu 05:08:06 AM 49.8833 -67.3333 26° Northeast 500 575 33,000  Level Montreal Center
Thu 05:08:42 AM 49.9500 -67.3333 360° North 500 575 33,000  Level Moncton Center
Thu 05:09:42 AM 50.0833 -67.2333 26° Northeast 500 575 33,000  Level Moncton Center
Thu 05:10:06 AM 50.1333 -67.1667 41° Northeast 500 575 33,000  Level Montreal Center
Thu 05:11:06 AM 50.2500 -67.0833 25° Northeast 500 575 33,000  Level Montreal Center
Thu 05:11:42 AM 50.3333 -67.0500 14° North 500 575 33,000  Level Moncton Center
Thu 05:12:06 AM 50.4000 -66.9833 33° Northeast 500 575 33,000  Level Montreal Center
Thu 05:13:06 AM 50.5000 -66.8833 32° Northeast 500 575 33,000  Level Montreal Center
Thu 05:13:43 AM 50.5833 -66.8667 North 500 575 33,000  Level Gander Center
Thu 05:14:06 AM 50.6500 -66.8000 32° Northeast 500 575 33,000  Level Montreal Center
Thu 05:15:06 AM 50.7667 -66.6833 32° Northeast 500 575 33,000  Level Montreal Center
Thu 05:16:06 AM 50.8833 -66.6167 20° North 500 575 33,000  Level Montreal Center
Thu 05:17:06 AM 51.0167 -66.5000 29° Northeast 500 575 33,000  Level Montreal Center
Thu 05:18:06 AM 51.1333 -66.4000 28° Northeast 500 575 33,000  Level Montreal Center
Thu 05:19:06 AM 51.2833 -66.3167 19° North 500 575 33,000  Level Montreal Center
Thu 05:20:06 AM 51.4000 -66.2333 24° Northeast 500 575 33,000  Level Montreal Center
Thu 05:21:06 AM 51.5500 -66.1500 19° North 500 575 33,000  Level Montreal Center
Thu 05:22:06 AM 51.6667 -66.0833 20° North 500 575 33,000  Level Montreal Center
Thu 05:23:06 AM 51.8000 -66.0333 13° North 500 575 33,000  Level Montreal Center
Thu 05:24:06 AM 51.9333 -65.9833 13° North 500 575 33,000 150 Level Montreal Center
Thu 05:25:06 AM 52.0667 -65.9167 17° North 500 575 33,300 700 Climbing Montreal Center
Thu 05:26:06 AM 52.2167 -65.8500 15° North 500 575 34,400 990 Climbing Montreal Center
Thu 05:26:43 AM 52.2833 -65.8500 360° North 490 564 34,900 371 Climbing Gander Center
Thu 05:27:43 AM 52.4167 -65.8000 13° North 490 564 35,000 50 Climbing Gander Center
Thu 05:28:43 AM 52.5500 -65.7333 17° North 490 564 35,000  Level Gander Center
Thu 05:29:43 AM 52.6833 -65.6667 17° North 490 564 35,000  Level Gander Center
Thu 05:30:43 AM 52.8167 -65.6333 North 490 564 35,000  Level Gander Center
Thu 05:31:43 AM 52.9500 -65.5500 21° North 490 564 35,000  Level Gander Center
Thu 05:32:43 AM 53.0667 -65.4833 19° North 490 564 35,000  Level Gander Center
Thu 05:33:43 AM 53.2167 -65.4167 15° North 490 564 35,000  Level Gander Center
Thu 05:34:06 AM 53.2500 -65.3500 50° Northeast 500 575 35,000  Level Montreal Center
Thu 05:35:06 AM 53.3833 -65.3000 13° North 490 564 35,000  Level Montreal Center
Thu 05:35:43 AM 53.4667 -65.3000 360° North 490 564 35,000  Level Gander Center
Thu 05:36:43 AM 53.6000 -65.2333 17° North 490 564 35,000  Level Gander Center
Thu 05:37:43 AM 53.7167 -65.1500 23° Northeast 490 564 35,000  Level Gander Center
Thu 05:38:06 AM 53.7667 -65.1000 31° Northeast 490 564 35,000  Level Montreal Center
Thu 05:39:06 AM 53.9000 -65.0167 20° North 490 564 35,000  Level Montreal Center
Thu 05:39:43 AM 53.9833 -65.0333 353° North 500 575 35,000  Level Gander Center
Thu 05:40:43 AM 54.1333 -64.9667 15° North 500 575 35,000  Level Gander Center
Thu 05:41:43 AM 54.2667 -64.8833 20° North 500 575 35,000  Level Gander Center
Thu 05:42:43 AM 54.3833 -64.8167 18° North 500 575 35,000  Level Gander Center
Thu 05:43:43 AM 54.5333 -64.7667 11° North 500 575 35,000  Level Gander Center
Thu 05:44:43 AM 54.6500 -64.6833 22° Northeast 500 575 35,000  Level Gander Center
Thu 05:45:43 AM 54.7833 -64.6167 16° North 500 575 35,000  Level Gander Center
Thu 05:46:43 AM 54.9167 -64.5333 20° North 500 575 35,000  Level Gander Center
Thu 05:47:43 AM 55.0667 -64.4667 14° North 510 587 35,000  Level Gander Center
Thu 05:48:43 AM 55.2000 -64.3833 20° North 510 587 35,000  Level Gander Center
Thu 05:49:43 AM 55.3500 -64.3167 14° North 510 587 35,000  Level Gander Center
Thu 05:50:06 AM 55.4000 -64.2500 37° Northeast 510 587 35,000  Level Montreal Center
Thu 05:51:06 AM 55.5167 -64.1833 18° North 510 587 35,000  Level Montreal Center
Thu 05:52:06 AM 55.6500 -64.1000 19° North 510 587 35,000  Level Montreal Center
Thu 05:53:06 AM 55.8000 -64.0000 21° North 510 587 35,000  Level Montreal Center
Thu 05:54:06 AM 55.9167 -63.9333 18° North 500 575 35,000  Level Montreal Center
Thu 05:54:43 AM 56.0000 -63.9333 360° North 520 598 35,000  Level Gander Center
Thu 05:55:43 AM 56.1500 -63.8667 14° North 520 598 35,000  Level Gander Center
Thu 05:56:43 AM 56.2833 -63.7833 19° North 510 587 35,000  Level Gander Center
Thu 05:57:43 AM 56.4167 -63.7333 12° North 500 575 35,000  Level Gander Center
Thu 05:58:43 AM 56.5500 -63.6500 19° North 510 587 35,000  Level Gander Center
Thu 05:59:06 AM 56.6000 -63.5667 43° Northeast 510 587 35,000  Level Montreal Center
Thu 06:00:06 AM 56.7500 -63.4833 17° North 500 575 35,000  Level Montreal Center
Thu 06:01:06 AM 56.8667 -63.3833 25° Northeast 500 575 35,000  Level Montreal Center
Thu 06:01:43 AM 56.9500 -63.4000 354° North 500 575 35,000  Level Gander Center
Thu 06:02:43 AM 57.0833 -63.3167 19° North 510 587 35,000  Level Gander Center
Thu 06:03:43 AM 57.2167 -63.2167 22° Northeast 510 587 35,000  Level Gander Center
Thu 06:04:43 AM 57.3500 -63.1667 11° North 510 587 35,000  Level Gander Center
Thu 06:05:43 AM 57.4833 -63.0833 19° North 500 575 35,000 -50 Level Gander Center
Thu 06:06:43 AM 57.6167 -63.0000 19° North 500 575 34,900  Descending Gander Center
Thu 06:07:06 AM 57.6833 -62.9167 34° Northeast 490 564 35,000 72 Climbing Montreal Center
Thu 06:08:06 AM 57.7833 -62.8333 24° Northeast 490 564 35,000  Level Montreal Center
Thu 06:08:43 AM 57.8833 -62.8500 355° North 490 564 35,000  Level Gander Center
Thu 06:09:06 AM 57.9333 -62.7500 47° Northeast 490 564 35,000  Level Montreal Center
Thu 06:10:06 AM 58.0667 -62.6833 15° North 500 575 35,000  Level Montreal Center
Thu 06:10:43 AM 58.1500 -62.6667 North 510 587 35,000  Level Gander Center
Thu 06:11:43 AM 58.2667 -62.5833 21° North 500 575 35,000  Level Gander Center
Thu 06:12:43 AM 58.4167 -62.4833 19° North 490 564 35,000  Level Gander Center
Thu 06:13:43 AM 58.5333 -62.4000 20° North 500 575 35,000  Level Gander Center
Thu 06:14:43 AM 58.6667 -62.3333 15° North 490 564 35,000 -50 Level Gander Center
Thu 06:15:43 AM 58.8000 -62.2500 18° North 490 564 34,900  Descending Gander Center
Thu 06:16:43 AM 58.9167 -62.1500 24° Northeast 490 564 35,000 50 Climbing Gander Center
Thu 06:17:43 AM 59.0500 -62.0833 14° North 490 564 35,000 -50 Level Gander Center
Thu 06:18:43 AM 59.1833 -62.0000 18° North 490 564 34,900  Descending Gander Center
Thu 06:19:43 AM 59.3000 -61.9000 24° Northeast 480 552 35,000 50 Climbing Gander Center
Thu 06:20:43 AM 59.4333 -61.8333 14° North 480 552 35,000  Level Gander Center
Thu 06:21:43 AM 59.5500 -61.7500 20° North 490 564 35,000  Level Gander Center
Thu 06:22:43 AM 59.7000 -61.6500 19° North 510 587 35,000  Level Gander Center
Thu 06:23:43 AM 59.8167 -61.5833 16° North 490 564 35,000  Level Gander Center
Thu 06:24:43 AM 59.9333 -61.5167 16° North 500 575 35,000  Level Gander Center
Thu 06:25:43 AM 60.0667 -61.4500 14° North 490 564 35,000  Level Gander Center
Thu 06:26:43 AM 60.2000 -61.3833 14° North 500 575 35,000  Level Gander Center
Thu 06:27:43 AM 60.3333 -61.3500 North 500 575 35,000  Level Gander Center
Thu 06:28:43 AM 60.4833 -61.2833 12° North 500 575 35,000  Level Gander Center
Thu 06:29:43 AM 60.6167 -61.2167 14° North 500 575 35,000  Level Gander Center
Thu 06:30:06 AM 60.6667 -61.1500 33° Northeast 500 575 35,000  Level Montreal Center
Thu 06:31:06 AM 60.8000 -61.0500 20° North 500 575 35,000  Level Montreal Center
Thu 06:31:43 AM 60.8833 -61.1167 339° North 500 575 35,000  Level Gander Center
Thu 06:32:43 AM 61.0167 -61.0500 14° North 500 575 35,000  Level Gander Center
Thu 06:33:43 AM 61.1500 -60.9667 17° North 500 575 35,000  Level Gander Center
Thu 06:34:43 AM 61.2833 -60.9000 14° North 500 575 35,000  Level Gander Center
Thu 06:35:43 AM 61.4333 -60.8667 North 500 575 35,000  Level Gander Center
Thu 06:36:06 AM 61.4833 -60.7667 44° Northeast 500 575 35,000  Level Montreal Center
Thu 06:37:06 AM 61.6167 -60.7000 13° North 500 575 35,000  Level Montreal Center
Thu 06:38:06 AM 61.7500 -60.6333 13° North 500 575 35,000  Level Montreal Center
Thu 06:39:06 AM 61.8667 -60.5667 15° North 500 575 35,000  Level Montreal Center
Thu 06:39:43 AM 61.9667 -60.6167 347° North 490 564 35,000  Level Gander Center
Thu 06:40:06 AM 62.0167 -60.5000 48° Northeast 490 564 35,000  Level Montreal Center
Thu 06:41:06 AM 62.1500 -60.4333 13° North 500 575 35,000  Level Montreal Center
Thu 06:41:43 AM 62.2333 -60.4667 349° North 500 575 35,000  Level Gander Center
Thu 06:42:43 AM 62.3667 -60.4167 10° North 500 575 35,000  Level Gander Center
Thu 06:43:06 AM 62.4167 -60.3000 47° Northeast 500 575 35,000  Level Montreal Center
Thu 06:44:06 AM 62.5500 -60.2667 North 500 575 35,000  Level Montreal Center
Thu 06:45:06 AM 62.6833 -60.2000 13° North 500 575 35,000  Level Montreal Center
Thu 06:46:06 AM 62.8167 -60.1333 13° North 500 575 35,000  Level Montreal Center
Thu 06:47:06 AM 62.9500 -60.0500 16° North 500 575 35,000  Level Montreal Center
Thu 06:47:43 AM 63.0333 -60.0833 350° North 500 575 35,000  Level Gander Center
Thu 06:48:43 AM 63.1667 -60.0000 16° North 500 575 35,000  Level Gander Center
Thu 06:49:43 AM 63.3167 -59.9167 14° North 500 575 35,000  Level Gander Center
Thu 06:50:43 AM 63.4500 -59.8833 North 500 575 35,000  Level Gander Center
Thu 06:51:43 AM 63.5833 -59.8000 16° North 500 575 35,000  Level Gander Center
Thu 06:52:43 AM 63.7000 -59.7167 18° North 500 575 35,000  Level Gander Center
Thu 06:53:43 AM 63.8333 -59.6333 15° North 500 575 35,000  Level Gander Center
Thu 06:54:43 AM 63.9667 -59.5500 15° North 500 575 35,000  Level Gander Center
Thu 06:55:43 AM 64.1000 -59.5000 North 500 575 35,000  Level Gander Center
Thu 06:56:43 AM 64.2333 -59.4167 15° North 500 575 35,000  Level Gander Center
Thu 06:57:43 AM 64.3667 -59.3333 15° North 500 575 35,000  Level Gander Center
Thu 06:58:43 AM 64.5000 -59.2500 15° North 500 575 35,000  Level Gander Center
Thu 06:59:43 AM 64.6500 -59.2000 North 500 575 35,000  Level Gander Center
Thu 07:00:43 AM 64.7667 -59.1167 17° North 510 587 35,000  Level Gander Center
Thu 07:01:43 AM 64.9000 -59.0333 15° North 510 587 35,000  Level Gander Center
Thu 07:02:43 AM 65.0667 -58.9333 14° North 510 587 35,000  Level Gander Center
Thu 07:03:00 AM 65.0000 -59.0000 North 492 566 35,000  Level ETMS Enhanced Traffic Management System
Thu 07:03:06 AM 65.0833 -58.8667 59° Northeast 500 575 35,000  Level Montreal Center
Thu 07:03:43 AM 65.2000 -58.9167 North 510 587 35,000  Level Gander Center
Thu 07:04:06 AM 65.2167 -58.8167 68° East 510 587 35,000  Level Montreal Center
Thu 07:05:06 AM 65.3667 -58.7667 North 500 575 35,000  Level Montreal Center
Thu 07:05:43 AM 65.4833 -58.8167 350° North 510 587 35,000  Level Gander Center
Thu 07:06:43 AM 65.6167 -58.7667 North 510 587 35,000  Level Gander Center
Thu 07:07:06 AM 65.6333 -58.6833 64° Northeast 500 575 35,000  Level Montreal Center
Thu 07:07:43 AM 65.7333 -58.7167 352° North 500 575 35,000  Level Gander Center
Thu 07:08:06 AM 65.7833 -58.6167 39° Northeast 510 587 35,000  Level Montreal Center
Thu 07:08:43 AM 65.8667 -58.6667 346° North 510 587 35,000  Level Gander Center
Thu 07:09:43 AM 66.0167 -58.6167 North 500 575 35,000  Level Gander Center
Thu 07:10:43 AM 66.1500 -58.6000 North 500 575 35,000  Level Gander Center
Thu 07:11:43 AM 66.2833 -58.5500 North 500 575 35,000  Level Gander Center
Thu 07:12:43 AM 66.4333 -58.4833 10° North 510 587 35,000  Level Gander Center
Thu 07:13:06 AM 66.4500 -58.3333 74° East 490 564 35,000  Level Montreal Center
Thu 07:13:43 AM 66.5500 -58.4333 338° Northwest 500 575 35,000  Level Gander Center
Thu 07:14:06 AM 66.5833 -58.3333 50° Northeast 510 587 35,000  Level Montreal Center
Thu 07:15:06 AM 66.7167 -58.2333 17° North 510 587 35,000  Level Montreal Center
Thu 07:15:43 AM 66.8333 -58.3167 344° North 500 575 35,000  Level Gander Center
Thu 07:16:43 AM 66.9667 -58.3000 North 510 587 35,000  Level Gander Center
Thu 07:17:43 AM 67.1000 -58.2500 North 510 587 35,000  Level Gander Center
Thu 07:18:43 AM 67.2500 -58.1833 10° North 510 587 35,000  Level Gander Center
Thu 07:19:43 AM 67.3667 -58.1333 North 510 587 35,000  Level Gander Center
Thu 07:20:43 AM 67.5167 -58.0667 10° North 510 587 35,000  Level Gander Center
Thu 07:21:43 AM 67.6500 -58.0000 11° North 510 587 35,000  Level Gander Center
Thu 07:22:43 AM 67.8000 -57.9500 North 510 587 35,000  Level Gander Center
Thu 07:23:43 AM 67.9333 -57.8833 11° North 520 598 35,000  Level Gander Center
Thu 07:24:43 AM 68.0667 -57.8167 11° North 510 587 35,000  Level Gander Center
Thu 07:25:43 AM 68.2000 -57.7500 11° North 510 587 35,000  Level Gander Center
Thu 07:26:43 AM 68.3333 -57.7333 North 510 587 35,000  Level Gander Center
Thu 07:27:43 AM 68.4833 -57.6667 North 510 587 35,000  Level Gander Center
Thu 07:28:43 AM 68.6167 -57.6000 10° North 510 587 35,000  Level Gander Center
Thu 07:29:43 AM 68.7500 -57.5333 10° North 510 587 35,000  Level Gander Center
Thu 07:30:43 AM 68.8833 -57.4667 10° North 500 575 35,000  Level Gander Center
Thu 07:31:43 AM 69.0167 -57.4500 North 500 575 35,000  Level Gander Center
Thu 07:32:43 AM 69.1667 -57.3833 North 510 587 35,000  Level Gander Center
Thu 07:33:43 AM 69.2833 -57.3167 11° North 510 587 35,000  Level Gander Center
Thu 07:34:43 AM 69.4167 -57.2333 12° North 510 587 35,000  Level Gander Center
Thu 07:35:43 AM 69.5833 -57.1667 North 510 587 35,000  Level Gander Center
Thu 07:36:43 AM 69.7333 -57.0500 15° North 510 587 35,000  Level Gander Center
Thu 07:37:43 AM 69.8500 -57.0167 North 510 587 35,000  Level Gander Center
Thu 07:38:43 AM 70.0000 -56.9500 North 510 587 35,000  Level Gander Center
Thu 07:39:43 AM 70.1333 -56.8667 12° North 510 587 35,000  Level Gander Center
Thu 07:40:43 AM 70.2833 -56.8500 North 510 587 35,000  Level Gander Center
Thu 07:41:43 AM 70.4000 -56.8667 357° North 510 587 35,000  Level Gander Center
Thu 07:42:43 AM 70.5500 -56.7833 10° North 510 587 35,000  Level Gander Center
Thu 07:44:00 AM 70.7176 -56.8636 351° North  Level FlightAware Approximate
Thu 07:51:00 AM 71.6311 -57.3260 351° North  Level FlightAware Approximate
Thu 07:52:00 AM 71.7615 -57.3957 351° North  Level FlightAware Approximate
Thu 07:53:00 AM 71.8919 -57.4663 350° North  Level FlightAware Approximate
Thu 07:54:00 AM 72.0222 -57.5380 350° North  Level FlightAware Approximate
Thu 07:55:00 AM 72.1525 -57.6107 350° North  Level FlightAware Approximate
Thu 07:56:00 AM 72.2829 -57.6844 350° North  Level FlightAware Approximate
Thu 07:57:00 AM 72.4131 -57.7591 350° North  Level FlightAware Approximate
Thu 07:58:00 AM 72.5434 -57.8350 350° North  Level FlightAware Approximate
Thu 07:59:00 AM 72.6736 -57.9119 350° North  Level FlightAware Approximate
Thu 08:00:00 AM 72.8037 -57.9900 350° North  Level FlightAware Approximate
Thu 08:01:00 AM 72.9339 -58.0692 350° North  Level FlightAware Approximate
Thu 08:02:00 AM 73.0640 -58.1497 350° North  Level FlightAware Approximate
Thu 08:03:00 AM 73.1941 -58.2313 350° North  Level FlightAware Approximate
Thu 08:04:00 AM 73.3242 -58.3141 350° North  Level FlightAware Approximate
Thu 08:05:00 AM 73.4542 -58.3983 350° North  Level FlightAware Approximate
Thu 08:06:00 AM 73.5842 -58.4837 349° North  Level FlightAware Approximate
Thu 08:07:00 AM 73.7141 -58.5704 349° North  Level FlightAware Approximate
Thu 08:08:00 AM 73.8252 -58.8378 322° Northwest  Level FlightAware Approximate
Thu 08:09:00 AM 73.9294 -59.1310 322° Northwest  Level FlightAware Approximate
Thu 08:10:00 AM 74.0332 -59.4278 322° Northwest  Level FlightAware Approximate
Thu 08:11:00 AM 74.1366 -59.7284 322° Northwest  Level FlightAware Approximate
Thu 08:12:00 AM 74.2396 -60.0329 321° Northwest  Level FlightAware Approximate
Thu 08:13:00 AM 74.3421 -60.3413 321° Northwest  Level FlightAware Approximate
Thu 08:14:00 AM 74.4442 -60.6536 321° Northwest  Level FlightAware Approximate
Thu 08:15:00 AM 74.5459 -60.9699 320° Northwest  Level FlightAware Approximate
Thu 08:16:00 AM 74.6471 -61.2903 320° Northwest  Level FlightAware Approximate
Thu 08:17:00 AM 74.7478 -61.6148 320° Northwest  Level FlightAware Approximate
Thu 08:18:00 AM 74.8481 -61.9436 319° Northwest  Level FlightAware Approximate
Thu 08:19:00 AM 74.9485 -62.2738 320° Northwest  Level FlightAware Approximate
Thu 08:20:00 AM 75.0484 -62.6083 319° Northwest  Level FlightAware Approximate
Thu 08:21:00 AM 75.1463 -62.9540 317° Northwest  Level FlightAware Approximate
Thu 08:22:00 AM 75.2433 -63.3052 320° Northwest  Level FlightAware Approximate
Thu 08:23:00 AM 75.3436 -63.6447 319° Northwest  Level FlightAware Approximate
Thu 08:24:00 AM 75.4372 -64.0149 315° West  Level FlightAware Approximate
Thu 08:25:00 AM 75.5300 -64.3905 315° West  Level FlightAware Approximate
Thu 08:26:00 AM 75.6223 -64.7707 314° West  Level FlightAware Approximate
Thu 08:27:00 AM 75.7158 -65.1487 315° West  Level FlightAware Approximate
Thu 08:28:00 AM 75.8088 -65.5305 315° West  Level FlightAware Approximate
Thu 08:29:00 AM 75.9013 -65.9172 315° West  Level FlightAware Approximate
Thu 08:30:00 AM 75.9932 -66.3086 314° West  Level FlightAware Approximate
Thu 08:31:00 AM 76.0852 -66.7025 314° West  Level FlightAware Approximate
Thu 08:32:00 AM 76.1772 -67.0986 314° West  Level FlightAware Approximate
Thu 08:33:00 AM 76.2679 -67.5025 311° West  Level FlightAware Approximate
Thu 08:34:00 AM 76.3567 -67.9134 335° Northwest  Level FlightAware Approximate
Thu 08:35:00 AM 76.4466 -68.3192 317° Northwest  Level FlightAware Approximate
Thu 08:36:00 AM 76.5167 -68.7000 302° West  Level FlightAware Approximate
Thu 08:37:00 AM 76.5314 -68.7032 302° West  Level Estimated
Thu 08:38:00 AM 76.5314 -68.7032 302° West  Level Estimated
Thu 08:39:00 AM 76.5314 -68.7032 302° West  Level Estimated
Thu 08:40:00 AM 76.5314 -68.7032 302° West  Level Estimated
Thu 08:41:00 AM 76.5314 -68.7032 302° West  Level Estimated
Thu 08:42:00 AM 76.5314 -68.7032 302° West  Level Estimated
Thu 08:43:00 AM 76.5314 -68.7032 302° West  Level Estimated
Thu 08:44:00 AM 76.5314 -68.7032 302° West  Level Estimated
Thu 08:45:00 AM 76.5314 -68.7032 302° West  Level Estimated
Thu 08:46:00 AM 76.5314 -68.7032 302° West  Level Estimated
Thu 08:47:00 AM 76.5314 -68.7032 302° West  Level Estimated
Thu 08:48:00 AM 76.5314 -68.7032 302° West  Level Estimated
Thu 08:49:00 AM 76.5314 -68.7032 302° West  Level Estimated
Thu 08:50:00 AM 76.5314 -68.7032 302° West  Level Estimated
Thu 08:51:00 AM 76.5314 -68.7032 302° West  Level Estimated
Thu 08:52:00 AM 76.5314 -68.7032 302° West  Level Estimated
Thu 08:53:00 AM 76.5314 -68.7032 302° West  Level Estimated
Thu 08:54:00 AM 76.5314 -68.7032 302° West  Level Estimated
Thu 08:55:00 AM 76.5314 -68.7032 302° West  Level Estimated
Thu 08:56:00 AM 76.5314 -68.7032 302° West  Level Estimated
Thu 08:57:00 AM 76.5314 -68.7032 302° West  Level Estimated
Thu 08:58:00 AM 76.5314 -68.7032 302° West  Level Estimated

Login

Don't have an account? Register now (free) for customized features, flight alerts, and more!